createdAt,value
2022-10-02T00:00:11.516Z,9.01
2022-10-02T00:03:11.535Z,9.02
2022-10-02T00:06:11.581Z,9.02
2022-10-02T00:09:11.587Z,9.02
2022-10-02T00:12:11.597Z,9.03
2022-10-02T00:15:11.612Z,9.03
2022-10-02T00:18:11.634Z,9.03
2022-10-02T00:21:11.644Z,9.02
2022-10-02T00:24:11.691Z,9.02
2022-10-02T00:27:11.691Z,9.02
2022-10-02T00:30:11.702Z,9.02
2022-10-02T00:33:11.738Z,9.03
2022-10-02T00:36:11.745Z,9.01
2022-10-02T00:39:11.761Z,9
2022-10-02T00:42:11.798Z,9.01
2022-10-02T00:45:11.799Z,9.08
2022-10-02T00:48:11.828Z,9.07
2022-10-02T00:51:11.850Z,9.1
2022-10-02T00:54:11.839Z,9.15
2022-10-02T00:57:11.859Z,9.12
2022-10-02T01:00:11.888Z,9.16
2022-10-02T01:03:11.883Z,9.18
2022-10-02T01:06:11.913Z,9.16
2022-10-02T01:09:11.883Z,9.2
2022-10-02T01:12:11.890Z,9.23
2022-10-02T01:15:11.890Z,9.2
2022-10-02T01:18:11.917Z,9.24
2022-10-02T01:21:11.896Z,9.27
2022-10-02T01:24:11.889Z,9.25
2022-10-02T01:27:11.893Z,9.24
2022-10-02T01:30:11.900Z,9.23
2022-10-02T01:33:11.896Z,9.24
2022-10-02T01:36:11.923Z,9.24
2022-10-02T01:39:11.903Z,9.19
2022-10-02T01:42:11.899Z,9.21
2022-10-02T01:45:11.910Z,9.21
2022-10-02T01:48:11.904Z,9.21
2022-10-02T01:51:11.908Z,9.2
2022-10-02T01:54:11.939Z,9.23
2022-10-02T01:57:11.939Z,9.18
2022-10-02T02:00:11.920Z,9.19
2022-10-02T02:03:11.930Z,9.2
2022-10-02T02:06:11.927Z,9.21
2022-10-02T02:09:11.977Z,9.23
2022-10-02T02:12:12.001Z,9.28
2022-10-02T02:15:11.982Z,9.23
2022-10-02T02:18:11.979Z,9.25
2022-10-02T02:21:11.980Z,9.24
2022-10-02T02:24:11.987Z,9.25
2022-10-02T02:27:11.979Z,9.29
2022-10-02T02:30:12.016Z,9.29
2022-10-02T02:33:11.988Z,9.34
2022-10-02T02:36:11.992Z,9.35
2022-10-02T02:39:11.994Z,9.32
2022-10-02T02:42:14.550Z,9.31
2022-10-02T02:45:12.002Z,9.31
2022-10-02T02:48:12.023Z,9.31
2022-10-02T02:51:12.003Z,9.24
2022-10-02T02:54:11.996Z,9.18
2022-10-02T02:57:12.001Z,9.13
2022-10-02T03:00:11.999Z,9.09
2022-10-02T03:03:12.003Z,9.06
2022-10-02T03:06:12.027Z,9.08
2022-10-02T03:09:12.003Z,9.04
2022-10-02T03:12:12.004Z,9.01
2022-10-02T03:15:12.010Z,9.01
2022-10-02T03:18:12.003Z,8.98
2022-10-02T03:21:12.013Z,9.01
2022-10-02T03:24:12.038Z,9
2022-10-02T03:27:12.018Z,9.01
2022-10-02T03:30:12.020Z,8.96
2022-10-02T03:33:12.019Z,8.97
2022-10-02T03:36:12.028Z,8.98
2022-10-02T03:39:24.552Z,9.05
2022-10-02T03:42:12.078Z,9.05
2022-10-02T03:45:19.587Z,9.05
2022-10-02T03:48:12.040Z,9.1
2022-10-02T03:51:12.046Z,9.15
2022-10-02T03:54:12.041Z,9.14
2022-10-02T03:57:12.043Z,9.18
2022-10-02T04:00:12.068Z,9.23
2022-10-02T04:03:12.097Z,9.21
2022-10-02T04:06:12.042Z,9.2
2022-10-02T04:09:12.051Z,9.2
2022-10-02T04:12:12.059Z,9.25
2022-10-02T04:15:12.057Z,9.18
2022-10-02T04:18:12.092Z,9.12
2022-10-02T04:21:12.067Z,9.09
2022-10-02T04:24:12.067Z,9.11
2022-10-02T04:27:12.071Z,9.1
2022-10-02T04:30:12.082Z,9.06
2022-10-02T04:33:12.074Z,9.08
2022-10-02T04:36:12.097Z,9.09
2022-10-02T04:39:12.077Z,9.1
2022-10-02T04:42:12.087Z,9.13
2022-10-02T04:45:12.088Z,9.15
2022-10-02T04:48:12.086Z,9.2
2022-10-02T04:51:12.101Z,9.19
2022-10-02T04:54:12.127Z,9.13
2022-10-02T04:57:12.095Z,9.14
2022-10-02T05:00:12.101Z,9.15
2022-10-02T05:03:12.103Z,9.14
2022-10-02T05:06:12.106Z,9.15
2022-10-02T05:09:12.112Z,9.09
2022-10-02T05:12:12.136Z,9.11
2022-10-02T05:15:12.120Z,9.1
2022-10-02T05:18:15.852Z,9.13
2022-10-02T05:21:12.125Z,9.14
2022-10-02T05:24:12.126Z,9.14
2022-10-02T05:27:12.129Z,9.22
2022-10-02T05:30:12.161Z,9.22
2022-10-02T05:33:12.140Z,9.23
2022-10-02T05:36:12.140Z,9.29
2022-10-02T05:39:12.143Z,9.3
2022-10-02T05:42:12.148Z,9.36
2022-10-02T05:45:12.141Z,9.48
2022-10-02T05:48:12.172Z,9.53
2022-10-02T05:51:12.157Z,9.57
2022-10-02T05:54:12.165Z,9.55
2022-10-02T05:57:12.162Z,9.59
2022-10-02T06:00:12.170Z,9.59
2022-10-02T06:03:12.165Z,9.7
2022-10-02T06:06:12.209Z,9.73
2022-10-02T06:09:14.492Z,9.75
2022-10-02T06:12:12.181Z,9.85
2022-10-02T06:15:12.192Z,9.87
2022-10-02T06:18:12.189Z,9.88
2022-10-02T06:21:12.198Z,9.97
2022-10-02T06:24:12.221Z,9.91
2022-10-02T06:27:12.206Z,9.88
2022-10-02T06:30:12.211Z,9.88
2022-10-02T06:33:12.209Z,9.89
2022-10-02T06:36:12.220Z,9.89
2022-10-02T06:39:12.224Z,9.86
2022-10-02T06:42:12.294Z,9.87
2022-10-02T06:45:12.229Z,9.89
2022-10-02T06:48:12.232Z,10.02
2022-10-02T06:51:12.240Z,10.18
2022-10-02T06:54:12.236Z,10.25
2022-10-02T06:57:12.238Z,10.28
2022-10-02T07:00:12.267Z,10.48
2022-10-02T07:03:12.245Z,10.47
2022-10-02T07:06:12.259Z,10.73
2022-10-02T07:09:12.257Z,10.67
2022-10-02T07:12:12.268Z,10.45
2022-10-02T07:15:12.268Z,10.33
2022-10-02T07:18:12.295Z,10.36
2022-10-02T07:21:12.276Z,10.4
2022-10-02T07:24:12.282Z,10.31
2022-10-02T07:27:12.291Z,10.38
2022-10-02T07:30:12.290Z,10.5
2022-10-02T07:33:12.288Z,10.62
2022-10-02T07:36:12.330Z,10.65
2022-10-02T07:39:12.304Z,10.76
2022-10-02T07:42:12.308Z,10.82
2022-10-02T07:45:12.319Z,10.8
2022-10-02T07:48:12.327Z,10.89
2022-10-02T07:51:12.326Z,10.93
2022-10-02T07:54:12.359Z,10.96
2022-10-02T07:57:12.343Z,11
2022-10-02T08:00:12.342Z,10.85
2022-10-02T08:03:12.393Z,10.87
2022-10-02T08:06:12.356Z,10.78
2022-10-02T08:09:12.362Z,10.65
2022-10-02T08:12:12.389Z,10.68
2022-10-02T08:15:12.371Z,10.6
2022-10-02T08:18:30.400Z,10.59
2022-10-02T08:21:12.382Z,10.59
2022-10-02T08:24:12.382Z,10.57
2022-10-02T08:27:12.392Z,10.89
2022-10-02T08:30:12.421Z,10.92
2022-10-02T08:33:12.405Z,10.89
2022-10-02T08:36:12.412Z,10.87
2022-10-02T08:39:12.408Z,11.03
2022-10-02T08:42:12.420Z,11.19
2022-10-02T08:45:12.418Z,11.23
2022-10-02T08:48:12.467Z,11.22
2022-10-02T08:51:12.428Z,11.33
2022-10-02T08:54:12.437Z,11.05
2022-10-02T08:57:12.445Z,11.24
2022-10-02T09:00:12.454Z,11.17
2022-10-02T09:03:12.452Z,10.95
2022-10-02T09:06:12.537Z,10.85
2022-10-02T09:09:12.469Z,10.84
2022-10-02T09:12:12.474Z,10.91
2022-10-02T09:15:12.480Z,11.07
2022-10-02T09:18:12.482Z,11.03
2022-10-02T09:21:12.490Z,10.88
2022-10-02T09:24:12.517Z,10.71
2022-10-02T09:27:12.498Z,10.87
2022-10-02T09:30:12.514Z,11.02
2022-10-02T09:33:15.827Z,11.03
2022-10-02T09:36:12.516Z,10.92
2022-10-02T09:39:12.523Z,10.77
2022-10-02T09:42:12.557Z,10.73
2022-10-02T09:45:12.538Z,10.88
2022-10-02T09:48:12.546Z,11.14
2022-10-02T09:51:12.554Z,11.09
2022-10-02T09:54:12.563Z,11.02
2022-10-02T09:57:12.569Z,11
2022-10-02T10:00:12.597Z,11.01
2022-10-02T10:03:12.581Z,10.67
2022-10-02T10:06:12.581Z,10.6
2022-10-02T10:09:12.588Z,10.43
2022-10-02T10:12:12.587Z,10.6
2022-10-02T10:15:12.602Z,10.5
2022-10-02T10:18:12.638Z,10.39
2022-10-02T10:21:12.604Z,10.49
2022-10-02T10:24:12.603Z,10.3
2022-10-02T10:27:12.621Z,10.26
2022-10-02T10:30:12.663Z,10.41
2022-10-02T10:33:12.617Z,10.38
2022-10-02T10:36:12.649Z,10.21
2022-10-02T10:39:12.624Z,10.12
2022-10-02T10:42:12.636Z,10.06
2022-10-02T10:45:12.632Z,9.94
2022-10-02T10:48:12.635Z,9.84
2022-10-02T10:51:12.636Z,9.67
2022-10-02T10:54:12.664Z,9.81
2022-10-02T10:57:12.644Z,9.83
2022-10-02T11:00:12.644Z,9.63
2022-10-02T11:03:12.647Z,9.79
2022-10-02T11:06:12.647Z,9.84
2022-10-02T11:09:12.657Z,9.85
2022-10-02T11:12:12.767Z,9.81
2022-10-02T11:15:12.656Z,9.91
2022-10-02T11:18:12.663Z,10.13
2022-10-02T11:21:12.665Z,9.96
2022-10-02T11:24:12.660Z,9.85
2022-10-02T11:27:12.667Z,9.91
2022-10-02T11:30:12.694Z,9.87
2022-10-02T11:33:12.674Z,9.74
2022-10-02T11:36:12.679Z,9.64
2022-10-02T11:39:12.684Z,9.99
2022-10-02T11:42:12.688Z,9.97
2022-10-02T11:45:12.704Z,10.15
2022-10-02T11:48:12.739Z,10.12
2022-10-02T11:51:12.708Z,10.18
2022-10-02T11:54:12.726Z,10.21
2022-10-02T11:57:12.722Z,10.06
2022-10-02T12:00:12.734Z,10
2022-10-02T12:03:12.828Z,9.96
2022-10-02T12:06:12.758Z,9.56
2022-10-02T12:09:12.757Z,9.52
2022-10-02T12:12:12.763Z,9.65
2022-10-02T12:15:12.756Z,9.63
2022-10-02T12:18:12.762Z,9.53
2022-10-02T12:21:12.773Z,9.69
2022-10-02T12:24:12.806Z,10.11
2022-10-02T12:27:12.778Z,9.96
2022-10-02T12:30:12.785Z,9.89
2022-10-02T12:33:12.795Z,9.71
2022-10-02T12:36:12.799Z,9.88
2022-10-02T12:39:12.807Z,10.15
2022-10-02T12:42:12.850Z,10.16
2022-10-02T12:45:12.828Z,10.26
2022-10-02T12:48:12.832Z,10.44
2022-10-02T12:51:12.845Z,10.51
2022-10-02T12:54:12.891Z,10.52
2022-10-02T12:57:12.853Z,10.5
2022-10-02T13:00:12.874Z,10.49
2022-10-02T13:03:12.947Z,10.52
2022-10-02T13:06:12.877Z,10.31
2022-10-02T13:09:12.876Z,10.28
2022-10-02T13:12:12.883Z,10.31
2022-10-02T13:15:12.898Z,10.36
2022-10-02T13:18:12.926Z,10.4
2022-10-02T13:21:12.898Z,10.44
2022-10-02T13:24:12.910Z,10.55
2022-10-02T13:27:12.917Z,10.65
2022-10-02T13:30:12.916Z,10.68
2022-10-02T13:33:12.921Z,10.75
2022-10-02T13:36:12.939Z,10.69
2022-10-02T13:39:12.919Z,10.61
2022-10-02T13:42:12.928Z,10.57
2022-10-02T13:45:12.920Z,10.59
2022-10-02T13:48:12.931Z,10.83
2022-10-02T13:51:12.919Z,10.77
2022-10-02T13:54:12.952Z,10.46
2022-10-02T13:57:12.937Z,10.54
2022-10-02T14:00:12.940Z,10.38
2022-10-02T14:03:12.937Z,10.1
2022-10-02T14:06:12.940Z,9.93
2022-10-02T14:09:12.945Z,9.93
2022-10-02T14:12:12.967Z,10.01
2022-10-02T14:15:12.945Z,10.04
2022-10-02T14:18:12.947Z,9.9
2022-10-02T14:21:12.950Z,9.91
2022-10-02T14:24:12.955Z,9.95
2022-10-02T14:27:12.952Z,10.02
2022-10-02T14:30:12.977Z,10.09
2022-10-02T14:33:12.957Z,10.1
2022-10-02T14:36:12.960Z,10.18
2022-10-02T14:39:12.965Z,10.18
2022-10-02T14:42:12.952Z,10.17
2022-10-02T14:45:12.969Z,10.21
2022-10-02T14:48:13.039Z,10.12
2022-10-02T14:51:12.971Z,10.17
2022-10-02T14:54:12.972Z,10.09
2022-10-02T14:57:16.252Z,9.92
2022-10-02T15:00:12.974Z,9.93
2022-10-02T15:03:12.978Z,9.92
2022-10-02T15:06:12.998Z,9.88
2022-10-02T15:09:12.978Z,9.86
2022-10-02T15:12:12.984Z,9.85
2022-10-02T15:15:12.982Z,9.82
2022-10-02T15:18:12.993Z,9
2022-10-02T15:21:12.989Z,8.88
2022-10-02T15:24:13.010Z,8.91
2022-10-02T15:27:12.995Z,8.89
2022-10-02T15:30:12.993Z,8.94
2022-10-02T15:33:12.986Z,8.99
2022-10-02T15:36:12.993Z,9.03
2022-10-02T15:39:13.966Z,9.11
2022-10-02T15:42:13.023Z,9.16
2022-10-02T15:45:12.997Z,9.17
2022-10-02T15:48:12.998Z,9.21
2022-10-02T15:51:13.004Z,9.27
2022-10-02T15:54:13.006Z,9.26
2022-10-02T15:57:13.006Z,9.28
2022-10-02T16:00:13.035Z,9.35
2022-10-02T16:03:13.010Z,9.37
2022-10-02T16:06:13.015Z,9.36
2022-10-02T16:09:13.017Z,9.35
2022-10-02T16:12:13.017Z,9.36
2022-10-02T16:15:13.027Z,9.4
2022-10-02T16:18:13.043Z,9.38
2022-10-02T16:21:13.028Z,9.32
2022-10-02T16:24:13.026Z,9.34
2022-10-02T16:27:13.028Z,9.35
2022-10-02T16:30:13.032Z,9.33
2022-10-02T16:33:13.031Z,9.33
2022-10-02T16:36:13.057Z,9.33
2022-10-02T16:39:13.037Z,9.3
2022-10-02T16:42:13.040Z,9.31
2022-10-02T16:45:13.035Z,9.3
2022-10-02T16:48:13.039Z,9.25
2022-10-02T16:51:13.037Z,9.25
2022-10-02T16:54:13.065Z,9.19
2022-10-02T16:57:13.043Z,9.17
2022-10-02T17:00:13.052Z,9.2
2022-10-02T17:03:13.055Z,9.15
2022-10-02T17:06:13.052Z,9.14
2022-10-02T17:09:13.060Z,9.12
2022-10-02T17:12:13.080Z,9.1
2022-10-02T17:15:13.054Z,9.11
2022-10-02T17:18:13.078Z,9.12
2022-10-02T17:21:13.059Z,9.11
2022-10-02T17:24:13.067Z,9.12
2022-10-02T17:27:13.072Z,9.1
2022-10-02T17:30:13.102Z,9.11
2022-10-02T17:33:13.091Z,9.13
2022-10-02T17:36:13.081Z,9.13
2022-10-02T17:39:13.091Z,9.12
2022-10-02T17:42:13.094Z,9.14
2022-10-02T17:45:13.099Z,9.13
2022-10-02T17:48:13.200Z,9.1
2022-10-02T17:51:31.227Z,9.15
2022-10-02T17:54:13.103Z,9.12
2022-10-02T17:57:13.097Z,9.1
2022-10-02T18:00:13.106Z,9.14
2022-10-02T18:03:13.103Z,9.13
2022-10-02T18:06:13.134Z,9.11
2022-10-02T18:09:13.112Z,9.15
2022-10-02T18:12:13.115Z,9.13
2022-10-02T18:15:13.118Z,9.17
2022-10-02T18:18:13.149Z,9.14
2022-10-02T18:21:13.128Z,9.18
2022-10-02T18:24:13.149Z,9.16
2022-10-02T18:27:13.129Z,9.19
2022-10-02T18:30:13.127Z,9.2
2022-10-02T18:33:13.130Z,9.21
2022-10-02T18:36:13.135Z,9.24
2022-10-02T18:39:13.138Z,9.24
2022-10-02T18:42:13.228Z,9.26
2022-10-02T18:45:13.141Z,9.22
2022-10-02T18:48:16.184Z,9.27
2022-10-02T18:51:13.152Z,9.26
2022-10-02T18:54:13.150Z,9.28
2022-10-02T18:57:13.221Z,9.28
2022-10-02T19:00:13.187Z,9.23
2022-10-02T19:03:13.159Z,9.23
2022-10-02T19:06:13.164Z,9.29
2022-10-02T19:09:13.163Z,9.27
2022-10-02T19:12:13.165Z,9.27
2022-10-02T19:15:13.166Z,9.27
2022-10-02T19:18:13.192Z,9.32
2022-10-02T19:21:13.170Z,9.31
2022-10-02T19:24:13.172Z,9.36
2022-10-02T19:27:13.178Z,9.33
2022-10-02T19:30:13.183Z,9.38
2022-10-02T19:33:13.183Z,9.41
2022-10-02T19:36:13.212Z,9.38
2022-10-02T19:39:13.191Z,9.37
2022-10-02T19:42:13.197Z,9.36
2022-10-02T19:45:13.202Z,9.3
2022-10-02T19:48:13.205Z,9.33
2022-10-02T19:51:13.202Z,9.32
2022-10-02T19:54:13.230Z,9.29
2022-10-02T19:57:13.213Z,9.32
2022-10-02T20:00:13.208Z,9.33
2022-10-02T20:03:13.213Z,9.35
2022-10-02T20:06:13.220Z,9.41
2022-10-02T20:09:13.229Z,9.4
2022-10-02T20:12:13.249Z,9.4
2022-10-02T20:15:13.231Z,9.39
2022-10-02T20:18:13.241Z,9.38
2022-10-02T20:21:13.235Z,9.32
2022-10-02T20:24:13.237Z,9.32
2022-10-02T20:27:13.246Z,9.28
2022-10-02T20:30:13.264Z,9.23
2022-10-02T20:33:13.250Z,9.26
2022-10-02T20:36:13.251Z,9.27
2022-10-02T20:39:13.257Z,9.21
2022-10-02T20:42:13.258Z,9.22
2022-10-02T20:45:13.253Z,9.18
2022-10-02T20:48:13.291Z,9.21
2022-10-02T20:51:13.265Z,9.21
2022-10-02T20:54:13.265Z,9.22
2022-10-02T20:57:14.790Z,9.17
2022-10-02T21:00:13.274Z,9.21
2022-10-02T21:03:13.275Z,9.2
2022-10-02T21:06:13.301Z,9.18
2022-10-02T21:09:13.285Z,9.12
2022-10-02T21:12:13.294Z,9.14
2022-10-02T21:15:13.292Z,9.14
2022-10-02T21:18:13.300Z,9.15
2022-10-02T21:21:13.319Z,9.09
2022-10-02T21:24:13.326Z,9.11
2022-10-02T21:27:13.311Z,9.11
2022-10-02T21:30:13.311Z,9.11
2022-10-02T21:33:13.316Z,9.11
2022-10-02T21:36:13.327Z,9.12
2022-10-02T21:39:13.326Z,9.06
2022-10-02T21:42:13.442Z,9.07
2022-10-02T21:45:13.346Z,9.07
2022-10-02T21:48:13.346Z,9.08
2022-10-02T21:51:13.348Z,9.03
2022-10-02T21:54:13.354Z,9.09
2022-10-02T21:57:13.352Z,9.09
2022-10-02T22:00:13.379Z,9.09
2022-10-02T22:03:13.364Z,9.08
2022-10-02T22:06:13.406Z,9.06
2022-10-02T22:09:13.367Z,9
2022-10-02T22:12:13.381Z,8.99
2022-10-02T22:15:13.383Z,8.99
2022-10-02T22:18:13.410Z,8.94
2022-10-02T22:21:13.395Z,8.94
2022-10-02T22:24:13.395Z,8.96
2022-10-02T22:27:13.399Z,8.95
2022-10-02T22:30:13.404Z,8.94
2022-10-02T22:33:13.441Z,8.94
2022-10-02T22:36:13.439Z,9
2022-10-02T22:39:13.420Z,8.93
2022-10-02T22:42:13.426Z,8.93
2022-10-02T22:45:13.426Z,8.92
2022-10-02T22:48:13.430Z,8.92
2022-10-02T22:51:13.431Z,8.92
2022-10-02T22:54:13.463Z,8.88
2022-10-02T22:57:13.447Z,8.91
2022-10-02T23:00:13.451Z,8.91
2022-10-02T23:03:13.450Z,8.97
2022-10-02T23:06:13.458Z,8.97
2022-10-02T23:09:13.463Z,8.91
2022-10-02T23:12:13.495Z,8.97
2022-10-02T23:15:13.475Z,8.91
2022-10-02T23:18:13.474Z,8.97
2022-10-02T23:21:13.477Z,8.92
2022-10-02T23:24:13.481Z,8.91
2022-10-02T23:27:13.491Z,8.91
2022-10-02T23:30:13.520Z,8.91
2022-10-02T23:33:13.500Z,8.91
2022-10-02T23:36:13.506Z,8.91
2022-10-02T23:39:13.497Z,8.89
2022-10-02T23:42:13.511Z,8.88
2022-10-02T23:45:13.512Z,8.9
2022-10-02T23:48:13.535Z,8.91
2022-10-02T23:51:13.528Z,8.93
2022-10-02T23:54:13.516Z,8.93
2022-10-02T23:57:13.527Z,8.91
